createdAt,value
2022-12-16T00:01:58.673Z,16.80
2022-12-16T00:04:31.026Z,16.52
2022-12-16T00:07:00.587Z,18.13
2022-12-16T00:09:30.077Z,15.80
2022-12-16T00:11:59.692Z,16.50
2022-12-16T00:14:30.899Z,17.33
2022-12-16T00:17:00.418Z,17.98
2022-12-16T00:19:29.968Z,17.67
2022-12-16T00:21:59.615Z,17.73
2022-12-16T00:24:29.218Z,17.83
2022-12-16T00:26:59.886Z,18.42
2022-12-16T00:29:29.465Z,18.15
2022-12-16T00:31:59.271Z,20.17
2022-12-16T00:34:28.897Z,19.23
2022-12-16T00:36:58.538Z,20.33
2022-12-16T00:39:28.363Z,18.05
2022-12-16T00:41:57.886Z,19.67
2022-12-16T00:44:27.452Z,18.83
2022-12-16T00:46:56.960Z,19.67
2022-12-16T00:49:26.457Z,18.92
2022-12-16T00:51:56.032Z,19.20
2022-12-16T00:54:25.515Z,19.80
2022-12-16T00:56:55.061Z,19.75
2022-12-16T00:59:24.750Z,19.92
2022-12-16T01:01:54.476Z,19.17
2022-12-16T01:04:24.962Z,20.08
2022-12-16T01:06:56.277Z,19.40
2022-12-16T01:09:25.891Z,21.30
2022-12-16T01:11:55.427Z,21.33
2022-12-16T01:14:25.123Z,20.85
2022-12-16T01:16:54.871Z,20.10
2022-12-16T01:19:24.497Z,20.05
2022-12-16T01:21:54.171Z,19.98
2022-12-16T01:24:23.736Z,20.20
2022-12-16T01:26:53.161Z,20.38
2022-12-16T01:29:23.710Z,20.98
2022-12-16T01:31:53.394Z,21.05
2022-12-16T01:34:25.617Z,18.60
2022-12-16T01:36:55.155Z,19.92
2022-12-16T01:39:25.212Z,18.67
2022-12-16T01:41:54.957Z,18.75
2022-12-16T01:44:28.201Z,19.63
2022-12-16T01:47:05.979Z,18.52
2022-12-16T01:50:06.397Z,18.63
2022-12-16T01:52:40.310Z,19.20
2022-12-16T01:55:22.579Z,18.13
2022-12-16T01:57:57.137Z,19.02
2022-12-16T02:00:26.778Z,19.42
2022-12-16T02:02:57.468Z,19.05
2022-12-16T02:05:28.164Z,20.20
2022-12-16T02:08:09.304Z,19.20
2022-12-16T02:11:18.237Z,19.63
2022-12-16T02:14:06.166Z,19.17
2022-12-16T02:16:55.870Z,18.73
2022-12-16T02:20:05.559Z,21.70
2022-12-16T02:23:02.108Z,21.73
2022-12-16T02:26:09.746Z,22.55
2022-12-16T02:29:09.339Z,24.23
2022-12-16T02:32:02.758Z,25.23
2022-12-16T02:35:05.208Z,24.70
2022-12-16T02:38:13.899Z,24.48
2022-12-16T02:41:04.097Z,24.75
2022-12-16T02:44:00.309Z,26.27
2022-12-16T02:46:34.725Z,25.92
2022-12-16T02:49:10.565Z,25.52
2022-12-16T02:51:40.997Z,25.85
2022-12-16T02:54:12.348Z,27.23
2022-12-16T02:57:12.481Z,27.35
2022-12-16T03:00:07.471Z,26.25
2022-12-16T03:02:52.460Z,24.83
2022-12-16T03:05:39.180Z,24.90
2022-12-16T03:08:16.046Z,23.90
2022-12-16T03:10:58.195Z,25.27
2022-12-16T03:13:29.934Z,23.63
2022-12-16T03:16:02.370Z,23.75
2022-12-16T03:18:32.282Z,23.05
2022-12-16T03:21:05.898Z,22.48
2022-12-16T03:23:55.358Z,22.73
2022-12-16T03:26:31.827Z,24.02
2022-12-16T03:29:08.038Z,23.77
2022-12-16T03:32:02.730Z,22.52
2022-12-16T03:34:41.177Z,22.83
2022-12-16T03:37:13.958Z,22.50
2022-12-16T03:39:50.699Z,22.08
2022-12-16T03:42:21.144Z,21.23
2022-12-16T03:44:52.237Z,21.17
2022-12-16T03:47:24.061Z,21.00
2022-12-16T03:49:54.349Z,20.23
2022-12-16T03:52:24.212Z,20.27
2022-12-16T03:54:54.140Z,22.20
2022-12-16T03:57:24.087Z,21.17
2022-12-16T03:59:53.881Z,19.92
2022-12-16T04:02:23.881Z,20.27
2022-12-16T04:04:53.922Z,19.85
2022-12-16T04:07:23.862Z,19.67
2022-12-16T04:09:54.823Z,19.27
2022-12-16T04:12:44.295Z,18.45
2022-12-16T04:15:34.183Z,18.65
2022-12-16T04:18:23.710Z,19.58
2022-12-16T04:21:16.231Z,19.30
2022-12-16T04:24:18.914Z,20.55
2022-12-16T04:27:15.060Z,19.67
2022-12-16T04:30:06.218Z,19.10
2022-12-16T04:32:55.969Z,19.98
2022-12-16T04:35:45.778Z,18.23
2022-12-16T04:38:35.267Z,18.08
2022-12-16T04:41:24.498Z,18.25
2022-12-16T04:44:13.745Z,18.75
2022-12-16T04:47:03.038Z,16.90
2022-12-16T04:49:52.271Z,17.95
2022-12-16T04:52:42.077Z,17.70
2022-12-16T04:55:32.481Z,15.98
2022-12-16T04:58:23.723Z,17.65
2022-12-16T05:01:12.966Z,18.63
2022-12-16T05:04:02.123Z,18.35
2022-12-16T05:06:51.376Z,18.40
2022-12-16T05:09:40.587Z,17.55
2022-12-16T05:12:29.814Z,18.90
2022-12-16T05:15:18.946Z,17.60
2022-12-16T05:18:08.146Z,18.48
2022-12-16T05:20:57.238Z,18.50
2022-12-16T05:23:46.367Z,18.23
2022-12-16T05:26:35.478Z,16.83
2022-12-16T05:29:24.730Z,18.02
2022-12-16T05:32:13.818Z,16.95
2022-12-16T05:35:03.037Z,16.35
2022-12-16T05:37:52.748Z,16.58
2022-12-16T05:40:42.158Z,16.42
2022-12-16T05:43:31.432Z,16.20
2022-12-16T05:46:20.975Z,15.77
2022-12-16T05:49:10.153Z,16.55
2022-12-16T05:51:59.302Z,15.43
2022-12-16T05:54:48.439Z,15.52
2022-12-16T05:57:37.568Z,16.27
2022-12-16T06:00:27.179Z,15.20
2022-12-16T06:03:16.531Z,14.60
2022-12-16T06:06:05.727Z,14.20
2022-12-16T06:08:54.945Z,14.93
2022-12-16T06:11:44.000Z,15.20
2022-12-16T06:14:33.137Z,14.25
2022-12-16T06:17:22.268Z,14.27
2022-12-16T06:20:11.631Z,14.32
2022-12-16T06:23:00.726Z,15.30
2022-12-16T06:25:49.898Z,15.25
2022-12-16T06:28:42.044Z,15.20
2022-12-16T06:31:35.218Z,14.13
2022-12-16T06:34:24.757Z,13.43
2022-12-16T06:37:13.997Z,15.10
2022-12-16T06:40:03.998Z,14.93
2022-12-16T06:42:53.723Z,14.73
2022-12-16T06:45:43.195Z,14.70
2022-12-16T06:48:32.957Z,14.85
2022-12-16T06:51:22.407Z,15.02
2022-12-16T06:54:11.926Z,13.45
2022-12-16T06:57:01.279Z,13.43
2022-12-16T06:59:50.675Z,13.23
2022-12-16T07:02:40.242Z,13.40
2022-12-16T07:05:30.169Z,13.18
2022-12-16T07:08:19.572Z,11.32
2022-12-16T07:11:16.535Z,11.48
2022-12-16T07:14:07.120Z,12.32
2022-12-16T07:16:57.991Z,13.73
2022-12-16T07:19:47.532Z,13.40
2022-12-16T07:22:37.047Z,12.90
2022-12-16T07:25:26.887Z,13.48
2022-12-16T07:28:16.398Z,12.10
2022-12-16T07:31:06.050Z,13.02
2022-12-16T07:33:55.686Z,12.80
2022-12-16T07:36:45.160Z,13.40
2022-12-16T07:39:34.679Z,14.05
2022-12-16T07:42:24.878Z,12.52
2022-12-16T07:45:14.520Z,12.85
2022-12-16T07:48:13.430Z,13.43
2022-12-16T07:51:03.160Z,12.75
2022-12-16T07:53:52.531Z,11.68
2022-12-16T07:56:41.999Z,11.75
2022-12-16T07:59:31.594Z,12.30
2022-12-16T08:02:21.389Z,12.23
2022-12-16T08:05:10.949Z,11.98
2022-12-16T08:08:02.910Z,11.32
2022-12-16T08:10:52.451Z,11.98
2022-12-16T08:13:44.938Z,11.68
2022-12-16T08:16:34.489Z,11.85
2022-12-16T08:19:24.049Z,12.75
2022-12-16T08:22:13.477Z,13.90
2022-12-16T08:25:02.971Z,12.93
2022-12-16T08:27:52.448Z,13.38
2022-12-16T08:30:42.419Z,13.95
2022-12-16T08:33:32.253Z,13.32
2022-12-16T08:36:21.988Z,12.95
2022-12-16T08:39:11.489Z,12.50
2022-12-16T08:42:01.005Z,13.02
2022-12-16T08:44:50.764Z,12.95
2022-12-16T08:47:41.210Z,12.43
2022-12-16T08:50:30.613Z,12.73
2022-12-16T08:53:19.827Z,12.63
2022-12-16T08:56:09.958Z,11.68
2022-12-16T08:58:59.175Z,11.63
2022-12-16T09:01:51.437Z,13.07
2022-12-16T09:04:45.618Z,11.50
2022-12-16T09:07:38.006Z,12.98
2022-12-16T09:10:27.608Z,11.90
2022-12-16T09:13:26.058Z,13.07
2022-12-16T09:16:19.314Z,12.07
2022-12-16T09:19:09.185Z,12.38
2022-12-16T09:21:58.378Z,12.48
2022-12-16T09:24:47.491Z,12.05
2022-12-16T09:27:36.719Z,12.02
2022-12-16T09:30:26.188Z,12.15
2022-12-16T09:33:15.377Z,12.15
2022-12-16T09:36:04.440Z,12.25
2022-12-16T09:38:53.598Z,12.02
2022-12-16T09:42:11.305Z,12.50
2022-12-16T09:45:30.290Z,12.73
2022-12-16T09:48:34.552Z,12.15
2022-12-16T09:51:29.190Z,11.50
2022-12-16T09:54:19.338Z,11.60
2022-12-16T09:57:09.409Z,11.45
2022-12-16T10:00:03.642Z,11.13
2022-12-16T10:02:53.511Z,12.38
2022-12-16T10:05:54.771Z,12.80
2022-12-16T10:09:03.728Z,13.13
2022-12-16T10:12:21.756Z,12.48
2022-12-16T10:15:22.061Z,12.07
2022-12-16T10:18:11.696Z,12.02
2022-12-16T10:21:10.740Z,12.30
2022-12-16T10:24:15.641Z,12.55
2022-12-16T10:27:43.927Z,12.55
2022-12-16T10:30:36.113Z,11.63
2022-12-16T10:33:26.813Z,11.70
2022-12-16T10:36:17.725Z,12.65
2022-12-16T10:39:15.344Z,12.27
2022-12-16T10:42:08.135Z,12.65
2022-12-16T10:45:19.348Z,12.45
2022-12-16T10:48:09.536Z,11.68
2022-12-16T10:50:59.289Z,13.40
2022-12-16T10:53:49.548Z,12.15
2022-12-16T10:57:11.610Z,13.25
2022-12-16T11:00:03.125Z,12.55
2022-12-16T11:02:53.836Z,12.23
2022-12-16T11:05:56.836Z,11.65
2022-12-16T11:08:56.334Z,13.57
2022-12-16T11:11:49.215Z,13.10
2022-12-16T11:17:58.314Z,12.85
2022-12-16T11:20:48.445Z,14.98
2022-12-16T11:23:47.040Z,14.68
2022-12-16T11:26:41.638Z,32.17
2022-12-16T11:29:41.426Z,41.20
2022-12-16T11:32:47.625Z,42.00
2022-12-16T11:35:41.739Z,27.13
2022-12-16T11:38:54.851Z,24.83
2022-12-16T11:41:50.956Z,24.02
2022-12-16T11:44:56.437Z,24.48
2022-12-16T11:48:15.364Z,19.10
2022-12-16T11:51:16.625Z,16.85
2022-12-16T11:54:26.437Z,16.58
2022-12-16T11:57:17.780Z,15.60
2022-12-16T12:00:22.939Z,18.98
2022-12-16T12:03:28.592Z,18.08
2022-12-16T12:06:56.820Z,19.23
2022-12-16T12:09:49.159Z,21.45
2022-12-16T12:13:17.394Z,20.33
2022-12-16T12:16:32.575Z,26.52
2022-12-16T12:19:45.254Z,33.83
2022-12-16T12:22:58.269Z,20.10
2022-12-16T12:26:09.610Z,21.40
2022-12-16T12:29:38.028Z,22.17
2022-12-16T12:33:02.938Z,32.63
2022-12-16T12:36:36.066Z,53.17
2022-12-16T12:39:58.388Z,50.92
2022-12-16T12:43:09.688Z,199.80
2022-12-16T12:46:31.034Z,91.53
2022-12-16T12:49:55.139Z,92.05
2022-12-16T12:53:24.600Z,82.95
2022-12-16T12:56:39.356Z,56.20
2022-12-16T12:59:42.548Z,49.58
2022-12-16T13:02:40.521Z,47.03
2022-12-16T13:05:36.343Z,45.53
2022-12-16T13:09:04.622Z,36.35
2022-12-16T13:11:54.107Z,30.20
2022-12-16T13:15:17.345Z,28.05
2022-12-16T13:18:41.205Z,25.33
2022-12-16T13:22:09.520Z,23.80
2022-12-16T13:25:04.389Z,23.48
2022-12-16T13:28:11.658Z,25.45
2022-12-16T13:31:01.063Z,22.73
2022-12-16T13:33:53.986Z,23.48
2022-12-16T13:36:56.067Z,22.15
2022-12-16T13:39:51.039Z,21.58
2022-12-16T13:43:11.277Z,20.92
2022-12-16T13:46:03.482Z,21.58
2022-12-16T13:49:01.748Z,21.73
2022-12-16T13:52:17.947Z,20.85
2022-12-16T13:55:18.762Z,20.58
2022-12-16T13:58:23.269Z,20.05
2022-12-16T14:01:26.943Z,19.95
2022-12-16T14:04:17.627Z,19.50
2022-12-16T14:07:07.856Z,19.15
2022-12-16T14:10:04.050Z,19.60
2022-12-16T14:13:30.661Z,19.13
2022-12-16T14:16:59.395Z,20.60
2022-12-16T14:20:16.294Z,18.20
2022-12-16T14:23:55.463Z,20.73
2022-12-16T14:26:37.096Z,20.83
2022-12-16T14:29:47.067Z,21.77
2022-12-16T14:32:48.908Z,20.63
2022-12-16T14:35:49.740Z,22.15
2022-12-16T14:38:50.600Z,20.48
2022-12-16T14:41:45.855Z,20.17
2022-12-16T14:44:44.028Z,20.25
2022-12-16T14:47:41.600Z,19.48
2022-12-16T14:50:51.501Z,21.00
2022-12-16T14:53:46.510Z,20.63
2022-12-16T14:56:44.315Z,19.75
2022-12-16T14:59:41.598Z,20.08
2022-12-16T15:02:51.682Z,19.67
2022-12-16T15:05:43.998Z,19.58
2022-12-16T15:08:34.880Z,18.85
2022-12-16T15:11:27.490Z,20.17
2022-12-16T15:14:20.652Z,19.05
2022-12-16T15:17:13.500Z,18.90
2022-12-16T15:20:08.112Z,18.42
2022-12-16T15:22:58.138Z,18.77
2022-12-16T15:25:48.573Z,19.40
2022-12-16T15:29:00.320Z,17.88
2022-12-16T15:32:03.309Z,16.98
2022-12-16T15:35:10.725Z,20.23
2022-12-16T15:38:04.689Z,19.23
2022-12-16T15:40:57.528Z,18.13
2022-12-16T15:43:57.323Z,18.95
2022-12-16T15:46:50.939Z,17.30
2022-12-16T15:49:53.608Z,18.25
2022-12-16T15:53:03.570Z,18.40
2022-12-16T15:56:04.865Z,17.95
2022-12-16T15:58:59.515Z,18.92
2022-12-16T16:01:49.675Z,19.10
2022-12-16T16:04:51.233Z,17.92
2022-12-16T16:07:47.110Z,17.92
2022-12-16T16:10:40.292Z,17.10
2022-12-16T16:13:30.949Z,17.63
2022-12-16T16:16:20.513Z,19.10
2022-12-16T16:19:09.668Z,18.25
2022-12-16T16:21:58.895Z,18.13
2022-12-16T16:24:48.210Z,18.55
2022-12-16T16:27:38.435Z,17.08
2022-12-16T16:30:28.269Z,20.35
2022-12-16T16:33:17.500Z,17.90
2022-12-16T16:36:06.808Z,17.90
2022-12-16T16:38:56.001Z,17.20
2022-12-16T16:41:45.194Z,17.42
2022-12-16T16:44:34.416Z,18.00
2022-12-16T16:47:23.679Z,17.42
2022-12-16T16:50:18.973Z,18.55
2022-12-16T16:53:08.563Z,18.02
2022-12-16T16:55:57.775Z,18.63
2022-12-16T16:58:53.315Z,18.45
2022-12-16T17:01:43.677Z,17.98
2022-12-16T17:04:32.934Z,17.92
2022-12-16T17:07:22.112Z,18.33
2022-12-16T17:10:11.243Z,17.17
2022-12-16T17:13:04.857Z,18.58
2022-12-16T17:15:57.440Z,18.55
2022-12-16T17:18:51.959Z,16.75
2022-12-16T17:21:41.626Z,18.77
2022-12-16T17:24:30.877Z,18.08
2022-12-16T17:27:20.071Z,17.58
2022-12-16T17:30:09.323Z,18.77
2022-12-16T17:32:58.490Z,18.15
2022-12-16T17:35:47.668Z,18.23
2022-12-16T17:38:37.134Z,19.20
2022-12-16T17:41:26.510Z,18.08
2022-12-16T17:44:15.968Z,18.00
2022-12-16T17:47:05.317Z,17.95
2022-12-16T17:49:54.508Z,17.77
2022-12-16T17:52:43.724Z,18.63
2022-12-16T17:55:33.218Z,18.60
2022-12-16T17:58:22.599Z,19.35
2022-12-16T18:01:12.159Z,16.95
2022-12-16T18:04:02.495Z,18.45
2022-12-16T18:06:51.670Z,17.25
2022-12-16T18:09:40.804Z,18.73
2022-12-16T18:12:29.947Z,18.10
2022-12-16T18:15:19.119Z,17.33
2022-12-16T18:18:10.964Z,17.15
2022-12-16T18:21:00.196Z,17.55
2022-12-16T18:23:52.372Z,18.02
2022-12-16T18:26:41.529Z,17.55
2022-12-16T18:29:30.645Z,17.45
2022-12-16T18:32:19.910Z,17.38
2022-12-16T18:35:09.095Z,18.25
2022-12-16T18:37:58.388Z,18.27
2022-12-16T18:40:47.487Z,16.50
2022-12-16T18:43:36.983Z,16.95
2022-12-16T18:46:26.301Z,18.10
2022-12-16T18:49:15.557Z,16.92
2022-12-16T18:52:04.744Z,17.67
2022-12-16T18:54:53.889Z,19.92
2022-12-16T18:57:43.095Z,19.05
2022-12-16T19:00:33.188Z,19.13
2022-12-16T19:03:22.768Z,17.73
2022-12-16T19:06:18.248Z,18.73
2022-12-16T19:09:07.384Z,21.17
2022-12-16T19:11:56.552Z,22.73
2022-12-16T19:14:45.646Z,24.33
2022-12-16T19:17:34.830Z,24.88
2022-12-16T19:20:26.292Z,24.65
2022-12-16T19:23:17.934Z,21.70
2022-12-16T19:26:07.080Z,23.52
2022-12-16T19:28:56.473Z,20.48
2022-12-16T19:31:45.641Z,21.05
2022-12-16T19:34:34.968Z,20.25
2022-12-16T19:37:24.150Z,20.30
2022-12-16T19:40:13.388Z,19.42
2022-12-16T19:43:02.539Z,20.13
2022-12-16T19:45:51.772Z,20.88
2022-12-16T19:48:41.019Z,19.80
2022-12-16T19:51:30.198Z,20.70
2022-12-16T19:54:19.344Z,20.17
2022-12-16T19:57:08.577Z,19.35
2022-12-16T19:59:59.245Z,21.13
2022-12-16T20:02:48.947Z,22.52
2022-12-16T20:05:38.693Z,22.38
2022-12-16T20:08:28.979Z,21.45
2022-12-16T20:11:18.118Z,21.40
2022-12-16T20:14:07.274Z,20.65
2022-12-16T20:16:56.393Z,21.75
2022-12-16T20:19:46.037Z,20.52
2022-12-16T20:22:35.279Z,22.88
2022-12-16T20:25:24.505Z,23.60
2022-12-16T20:28:13.667Z,23.60
2022-12-16T20:31:02.935Z,23.05
2022-12-16T20:33:53.408Z,22.67
2022-12-16T20:36:44.269Z,23.88
2022-12-16T20:39:33.480Z,23.13
2022-12-16T20:42:22.705Z,23.58
2022-12-16T20:45:11.842Z,22.40
2022-12-16T20:48:01.079Z,22.58
2022-12-16T20:50:50.272Z,21.10
2022-12-16T20:53:39.755Z,21.08
2022-12-16T20:56:29.277Z,21.67
2022-12-16T20:59:18.470Z,21.00
2022-12-16T21:02:25.893Z,22.48
2022-12-16T21:05:17.564Z,20.92
2022-12-16T21:08:07.083Z,20.83
2022-12-16T21:10:57.658Z,21.02
2022-12-16T21:13:47.426Z,22.60
2022-12-16T21:16:37.167Z,22.05
2022-12-16T21:19:32.800Z,22.88
2022-12-16T21:22:23.079Z,23.10
2022-12-16T21:25:12.617Z,20.92
2022-12-16T21:28:02.205Z,21.35
2022-12-16T21:30:51.723Z,21.50
2022-12-16T21:33:42.508Z,22.35
2022-12-16T21:36:32.165Z,20.80
2022-12-16T21:39:21.700Z,22.10
2022-12-16T21:42:11.110Z,21.40
2022-12-16T21:45:00.726Z,20.85
2022-12-16T21:47:50.237Z,21.10
2022-12-16T21:50:39.768Z,20.17
2022-12-16T21:53:29.297Z,19.38
2022-12-16T21:56:19.120Z,19.77
2022-12-16T21:59:08.377Z,20.00
2022-12-16T22:01:59.023Z,19.65
2022-12-16T22:04:48.368Z,19.60
2022-12-16T22:07:37.526Z,19.88
2022-12-16T22:10:27.370Z,20.40
2022-12-16T22:13:17.888Z,20.00
2022-12-16T22:16:17.677Z,20.27
2022-12-16T22:19:07.486Z,21.70
2022-12-16T22:21:56.977Z,21.55
2022-12-16T22:24:46.489Z,21.20
2022-12-16T22:27:35.998Z,22.08
2022-12-16T22:30:26.368Z,20.88
2022-12-16T22:33:15.857Z,20.30
2022-12-16T22:36:05.376Z,19.33
2022-12-16T22:38:56.289Z,20.67
2022-12-16T22:41:45.888Z,20.02
2022-12-16T22:44:35.383Z,20.27
2022-12-16T22:47:25.214Z,19.90
2022-12-16T22:50:14.659Z,19.63
2022-12-16T22:53:04.188Z,19.08
2022-12-16T22:55:57.323Z,20.17
2022-12-16T22:58:49.667Z,19.50
2022-12-16T23:01:38.797Z,19.33
2022-12-16T23:04:28.103Z,20.02
2022-12-16T23:07:17.306Z,19.75
2022-12-16T23:10:06.497Z,19.25
2022-12-16T23:12:56.352Z,20.67
2022-12-16T23:15:46.563Z,19.73
2022-12-16T23:18:35.785Z,19.48
2022-12-16T23:21:24.993Z,20.42
2022-12-16T23:24:14.887Z,19.75
2022-12-16T23:27:06.009Z,20.05
2022-12-16T23:29:56.752Z,20.30
2022-12-16T23:32:46.602Z,19.58
2022-12-16T23:35:35.833Z,20.45
2022-12-16T23:38:27.289Z,20.15
2022-12-16T23:41:22.615Z,19.58
2022-12-16T23:44:11.834Z,19.75
2022-12-16T23:47:00.988Z,18.90
2022-12-16T23:49:50.099Z,18.55
2022-12-16T23:52:39.273Z,18.98
2022-12-16T23:55:28.830Z,20.27
2022-12-16T23:58:23.755Z,19.67
